sensor_id;sensor_type;location;lat;lon;timestamp;temperature;humidity
3246;DHT22;1635;48.000;10.582;2022-08-05T00:00:15;18.80;99.90
3246;DHT22;1635;48.000;10.582;2022-08-05T00:02:44;18.80;99.90
3246;DHT22;1635;48.000;10.582;2022-08-05T00:05:19;18.80;99.90
3246;DHT22;1635;48.000;10.582;2022-08-05T00:08:07;18.80;99.90
3246;DHT22;1635;48.000;10.582;2022-08-05T00:10:59;18.70;99.90
3246;DHT22;1635;48.000;10.582;2022-08-05T00:13:31;18.80;99.90
3246;DHT22;1635;48.000;10.582;2022-08-05T00:16:09;18.80;99.90
3246;DHT22;1635;48.000;10.582;2022-08-05T00:18:47;18.80;99.90
3246;DHT22;1635;48.000;10.582;2022-08-05T00:21:17;18.80;99.90
3246;DHT22;1635;48.000;10.582;2022-08-05T00:23:46;18.70;99.90
3246;DHT22;1635;48.000;10.582;2022-08-05T00:26:34;18.90;99.90
3246;DHT22;1635;48.000;10.582;2022-08-05T00:29:02;19.00;99.90
3246;DHT22;1635;48.000;10.582;2022-08-05T00:31:30;18.90;99.90
3246;DHT22;1635;48.000;10.582;2022-08-05T00:34:17;18.90;99.90
3246;DHT22;1635;48.000;10.582;2022-08-05T00:37:05;18.90;99.90
3246;DHT22;1635;48.000;10.582;2022-08-05T00:39:40;18.80;99.90
3246;DHT22;1635;48.000;10.582;2022-08-05T00:42:34;18.70;99.90
3246;DHT22;1635;48.000;10.582;2022-08-05T00:45:05;18.60;99.90
3246;DHT22;1635;48.000;10.582;2022-08-05T00:47:38;18.50;99.90
3246;DHT22;1635;48.000;10.582;2022-08-05T00:50:24;18.40;99.90
3246;DHT22;1635;48.000;10.582;2022-08-05T00:52:52;18.40;99.90
3246;DHT22;1635;48.000;10.582;2022-08-05T00:55:22;18.30;99.90
3246;DHT22;1635;48.000;10.582;2022-08-05T00:58:11;18.40;99.90
3246;DHT22;1635;48.000;10.582;2022-08-05T01:00:40;18.40;99.90
3246;DHT22;1635;48.000;10.582;2022-08-05T01:03:09;18.40;99.90
3246;DHT22;1635;48.000;10.582;2022-08-05T01:05:50;18.30;99.90
3246;DHT22;1635;48.000;10.582;2022-08-05T01:08:21;18.20;99.90
3246;DHT22;1635;48.000;10.582;2022-08-05T01:11:27;18.20;99.90
3246;DHT22;1635;48.000;10.582;2022-08-05T01:14:10;18.00;99.90
3246;DHT22;1635;48.000;10.582;2022-08-05T01:17:26;18.10;99.90
3246;DHT22;1635;48.000;10.582;2022-08-05T01:23:10;18.00;99.90
3246;DHT22;1635;48.000;10.582;2022-08-05T01:31:53;17.90;99.90
3246;DHT22;1635;48.000;10.582;2022-08-05T01:34:50;17.90;99.90
3246;DHT22;1635;48.000;10.582;2022-08-05T01:40:11;17.90;99.90
3246;DHT22;1635;48.000;10.582;2022-08-05T01:42:45;17.90;99.90
3246;DHT22;1635;48.000;10.582;2022-08-05T01:45:15;17.80;99.90
3246;DHT22;1635;48.000;10.582;2022-08-05T01:47:45;17.80;99.90
3246;DHT22;1635;48.000;10.582;2022-08-05T01:50:19;17.80;99.90
3246;DHT22;1635;48.000;10.582;2022-08-05T01:52:59;17.80;99.90
3246;DHT22;1635;48.000;10.582;2022-08-05T01:55:32;17.80;99.90
3246;DHT22;1635;48.000;10.582;2022-08-05T01:58:04;17.80;99.90
3246;DHT22;1635;48.000;10.582;2022-08-05T02:00:44;17.80;99.90
3246;DHT22;1635;48.000;10.582;2022-08-05T02:03:24;17.90;99.90
3246;DHT22;1635;48.000;10.582;2022-08-05T02:06:01;17.90;99.90
3246;DHT22;1635;48.000;10.582;2022-08-05T02:08:51;18.00;99.90
3246;DHT22;1635;48.000;10.582;2022-08-05T02:11:30;18.00;99.90
3246;DHT22;1635;48.000;10.582;2022-08-05T02:14:46;18.00;99.90
3246;DHT22;1635;48.000;10.582;2022-08-05T02:16:56;18.00;99.90
3246;DHT22;1635;48.000;10.582;2022-08-05T02:19:36;17.90;99.90
3246;DHT22;1635;48.000;10.582;2022-08-05T02:22:27;18.00;99.90
3246;DHT22;1635;48.000;10.582;2022-08-05T02:25:05;18.00;99.90
3246;DHT22;1635;48.000;10.582;2022-08-05T02:27:40;18.00;99.90
3246;DHT22;1635;48.000;10.582;2022-08-05T02:30:31;17.90;99.90
3246;DHT22;1635;48.000;10.582;2022-08-05T02:33:03;18.00;99.90
3246;DHT22;1635;48.000;10.582;2022-08-05T02:35:34;18.00;99.90
3246;DHT22;1635;48.000;10.582;2022-08-05T02:38:12;18.00;99.90
3246;DHT22;1635;48.000;10.582;2022-08-05T02:40:46;17.90;99.90
3246;DHT22;1635;48.000;10.582;2022-08-05T02:43:15;17.90;99.90
3246;DHT22;1635;48.000;10.582;2022-08-05T02:45:45;18.00;99.90
3246;DHT22;1635;48.000;10.582;2022-08-05T02:48:21;18.10;99.90
3246;DHT22;1635;48.000;10.582;2022-08-05T02:50:59;18.10;99.90
3246;DHT22;1635;48.000;10.582;2022-08-05T02:53:29;18.10;99.90
3246;DHT22;1635;48.000;10.582;2022-08-05T02:56:10;18.20;99.90
3246;DHT22;1635;48.000;10.582;2022-08-05T02:58:46;18.20;99.90
3246;DHT22;1635;48.000;10.582;2022-08-05T03:01:23;18.20;99.90
3246;DHT22;1635;48.000;10.582;2022-08-05T03:04:01;18.20;99.90
3246;DHT22;1635;48.000;10.582;2022-08-05T03:06:41;18.30;99.90
3246;DHT22;1635;48.000;10.582;2022-08-05T03:09:26;18.30;99.90
3246;DHT22;1635;48.000;10.582;2022-08-05T03:12:09;18.40;99.90
3246;DHT22;1635;48.000;10.582;2022-08-05T03:14:37;18.60;99.90
3246;DHT22;1635;48.000;10.582;2022-08-05T03:17:13;18.90;99.90
3246;DHT22;1635;48.000;10.582;2022-08-05T03:19:41;19.30;99.90
3246;DHT22;1635;48.000;10.582;2022-08-05T03:22:12;19.80;99.90
3246;DHT22;1635;48.000;10.582;2022-08-05T03:24:46;20.30;99.90
3246;DHT22;1635;48.000;10.582;2022-08-05T03:27:19;20.70;99.90
3246;DHT22;1635;48.000;10.582;2022-08-05T03:29:47;21.10;99.90
3246;DHT22;1635;48.000;10.582;2022-08-05T03:32:37;21.80;99.90
3246;DHT22;1635;48.000;10.582;2022-08-05T03:35:05;22.40;99.90
3246;DHT22;1635;48.000;10.582;2022-08-05T03:37:35;22.80;99.90
3246;DHT22;1635;48.000;10.582;2022-08-05T03:40:14;23.10;99.90
3246;DHT22;1635;48.000;10.582;2022-08-05T03:42:59;23.30;99.90
3246;DHT22;1635;48.000;10.582;2022-08-05T03:45:43;23.60;99.90
3246;DHT22;1635;48.000;10.582;2022-08-05T03:48:29;23.70;99.90
3246;DHT22;1635;48.000;10.582;2022-08-05T03:51:23;23.70;99.90
3246;DHT22;1635;48.000;10.582;2022-08-05T03:54:44;23.80;99.90
3246;DHT22;1635;48.000;10.582;2022-08-05T03:57:30;23.80;99.90
3246;DHT22;1635;48.000;10.582;2022-08-05T04:00:13;23.80;99.90
3246;DHT22;1635;48.000;10.582;2022-08-05T04:02:45;23.80;99.90
3246;DHT22;1635;48.000;10.582;2022-08-05T04:05:28;23.90;99.90
3246;DHT22;1635;48.000;10.582;2022-08-05T04:08:05;24.00;99.90
3246;DHT22;1635;48.000;10.582;2022-08-05T04:10:55;24.00;99.90
3246;DHT22;1635;48.000;10.582;2022-08-05T04:13:23;23.90;99.90
3246;DHT22;1635;48.000;10.582;2022-08-05T04:15:54;24.00;99.90
3246;DHT22;1635;48.000;10.582;2022-08-05T04:18:32;24.00;99.90
3246;DHT22;1635;48.000;10.582;2022-08-05T04:21:02;24.00;99.90
3246;DHT22;1635;48.000;10.582;2022-08-05T04:23:32;24.00;99.90
3246;DHT22;1635;48.000;10.582;2022-08-05T04:26:20;23.90;99.90
3246;DHT22;1635;48.000;10.582;2022-08-05T04:28:49;23.90;99.90
3246;DHT22;1635;48.000;10.582;2022-08-05T04:31:18;23.90;99.90
3246;DHT22;1635;48.000;10.582;2022-08-05T04:33:47;23.90;99.90
3246;DHT22;1635;48.000;10.582;2022-08-05T04:36:35;23.90;99.90
3246;DHT22;1635;48.000;10.582;2022-08-05T04:39:13;23.90;99.90
3246;DHT22;1635;48.000;10.582;2022-08-05T04:41:41;23.90;99.90
3246;DHT22;1635;48.000;10.582;2022-08-05T04:44:11;23.80;99.90
3246;DHT22;1635;48.000;10.582;2022-08-05T04:46:39;23.80;99.90
3246;DHT22;1635;48.000;10.582;2022-08-05T04:49:13;23.90;99.90
3246;DHT22;1635;48.000;10.582;2022-08-05T04:51:42;23.90;99.90
3246;DHT22;1635;48.000;10.582;2022-08-05T04:54:11;23.90;99.90
3246;DHT22;1635;48.000;10.582;2022-08-05T04:56:40;23.80;99.90
3246;DHT22;1635;48.000;10.582;2022-08-05T04:59:10;23.90;99.90
3246;DHT22;1635;48.000;10.582;2022-08-05T05:01:51;23.90;99.90
3246;DHT22;1635;48.000;10.582;2022-08-05T05:04:39;23.90;99.90
3246;DHT22;1635;48.000;10.582;2022-08-05T05:07:15;23.90;99.90
3246;DHT22;1635;48.000;10.582;2022-08-05T05:09:44;23.90;99.90
3246;DHT22;1635;48.000;10.582;2022-08-05T05:12:11;23.90;99.90
3246;DHT22;1635;48.000;10.582;2022-08-05T05:14:39;24.00;99.90
3246;DHT22;1635;48.000;10.582;2022-08-05T05:17:17;24.00;99.90
3246;DHT22;1635;48.000;10.582;2022-08-05T05:19:54;24.20;99.90
3246;DHT22;1635;48.000;10.582;2022-08-05T05:22:23;24.30;99.90
3246;DHT22;1635;48.000;10.582;2022-08-05T05:24:54;24.50;99.90
3246;DHT22;1635;48.000;10.582;2022-08-05T05:27:28;24.70;99.90
3246;DHT22;1635;48.000;10.582;2022-08-05T05:30:13;24.80;99.90
3246;DHT22;1635;48.000;10.582;2022-08-05T05:33:01;24.70;99.90
3246;DHT22;1635;48.000;10.582;2022-08-05T05:35:44;24.70;99.90
3246;DHT22;1635;48.000;10.582;2022-08-05T05:38:15;24.70;99.90
3246;DHT22;1635;48.000;10.582;2022-08-05T05:40:55;24.60;99.90
3246;DHT22;1635;48.000;10.582;2022-08-05T05:43:23;24.60;99.90
3246;DHT22;1635;48.000;10.582;2022-08-05T05:46:11;24.50;99.90
3246;DHT22;1635;48.000;10.582;2022-08-05T05:48:45;24.50;99.90
3246;DHT22;1635;48.000;10.582;2022-08-05T05:51:20;24.40;99.90
3246;DHT22;1635;48.000;10.582;2022-08-05T05:53:49;24.30;99.90
3246;DHT22;1635;48.000;10.582;2022-08-05T05:56:27;24.20;99.90
3246;DHT22;1635;48.000;10.582;2022-08-05T05:59:05;24.20;99.90
3246;DHT22;1635;48.000;10.582;2022-08-05T06:01:39;24.10;99.90
3246;DHT22;1635;48.000;10.582;2022-08-05T06:04:23;24.20;99.90
3246;DHT22;1635;48.000;10.582;2022-08-05T06:06:51;24.20;99.90
3246;DHT22;1635;48.000;10.582;2022-08-05T06:09:19;24.20;99.90
3246;DHT22;1635;48.000;10.582;2022-08-05T06:12:02;24.20;99.90
3246;DHT22;1635;48.000;10.582;2022-08-05T06:14:30;24.30;99.90
3246;DHT22;1635;48.000;10.582;2022-08-05T06:17:00;24.40;99.90
3246;DHT22;1635;48.000;10.582;2022-08-05T06:19:48;24.50;99.90
3246;DHT22;1635;48.000;10.582;2022-08-05T06:22:28;24.50;99.90
3246;DHT22;1635;48.000;10.582;2022-08-05T06:25:01;24.50;99.90
3246;DHT22;1635;48.000;10.582;2022-08-05T06:27:50;24.60;99.90
3246;DHT22;1635;48.000;10.582;2022-08-05T06:30:38;24.60;99.90
3246;DHT22;1635;48.000;10.582;2022-08-05T06:33:07;24.70;99.90
3246;DHT22;1635;48.000;10.582;2022-08-05T06:35:37;24.80;99.90
3246;DHT22;1635;48.000;10.582;2022-08-05T06:38:25;25.00;99.90
3246;DHT22;1635;48.000;10.582;2022-08-05T06:41:04;25.10;99.90
3246;DHT22;1635;48.000;10.582;2022-08-05T06:43:35;25.10;99.90
3246;DHT22;1635;48.000;10.582;2022-08-05T06:46:23;25.10;99.90
3246;DHT22;1635;48.000;10.582;2022-08-05T06:48:57;25.00;99.90
3246;DHT22;1635;48.000;10.582;2022-08-05T06:51:29;25.00;99.90
3246;DHT22;1635;48.000;10.582;2022-08-05T06:53:58;24.80;99.90
3246;DHT22;1635;48.000;10.582;2022-08-05T06:56:27;24.60;99.90
3246;DHT22;1635;48.000;10.582;2022-08-05T06:58:55;24.50;99.90
3246;DHT22;1635;48.000;10.582;2022-08-05T07:01:23;24.40;99.90
3246;DHT22;1635;48.000;10.582;2022-08-05T07:04:00;24.30;99.90
3246;DHT22;1635;48.000;10.582;2022-08-05T07:06:29;24.40;99.90
3246;DHT22;1635;48.000;10.582;2022-08-05T07:08:59;24.40;99.90
3246;DHT22;1635;48.000;10.582;2022-08-05T07:11:33;24.40;99.90
3246;DHT22;1635;48.000;10.582;2022-08-05T07:14:05;24.40;99.90
3246;DHT22;1635;48.000;10.582;2022-08-05T07:16:57;24.60;99.90
3246;DHT22;1635;48.000;10.582;2022-08-05T07:19:49;24.70;99.90
3246;DHT22;1635;48.000;10.582;2022-08-05T07:22:39;24.90;99.90
3246;DHT22;1635;48.000;10.582;2022-08-05T07:25:08;25.00;99.90
3246;DHT22;1635;48.000;10.582;2022-08-05T07:27:57;25.30;99.90
3246;DHT22;1635;48.000;10.582;2022-08-05T07:30:36;25.50;99.90
3246;DHT22;1635;48.000;10.582;2022-08-05T07:33:10;25.70;99.90
3246;DHT22;1635;48.000;10.582;2022-08-05T07:35:44;25.90;99.90
3246;DHT22;1635;48.000;10.582;2022-08-05T07:38:33;25.90;99.90
3246;DHT22;1635;48.000;10.582;2022-08-05T07:41:20;25.50;99.90
3246;DHT22;1635;48.000;10.582;2022-08-05T07:44:08;25.50;99.90
3246;DHT22;1635;48.000;10.582;2022-08-05T07:46:47;25.40;99.90
3246;DHT22;1635;48.000;10.582;2022-08-05T07:49:17;25.40;99.90
3246;DHT22;1635;48.000;10.582;2022-08-05T07:51:47;25.50;99.90
3246;DHT22;1635;48.000;10.582;2022-08-05T07:54:24;25.50;99.90
3246;DHT22;1635;48.000;10.582;2022-08-05T07:57:02;25.40;99.90
3246;DHT22;1635;48.000;10.582;2022-08-05T07:59:50;25.60;99.90
3246;DHT22;1635;48.000;10.582;2022-08-05T08:02:23;25.80;99.90
3246;DHT22;1635;48.000;10.582;2022-08-05T08:04:54;25.80;99.90
3246;DHT22;1635;48.000;10.582;2022-08-05T08:07:22;25.90;99.90
3246;DHT22;1635;48.000;10.582;2022-08-05T08:09:55;25.70;99.90
3246;DHT22;1635;48.000;10.582;2022-08-05T08:12:23;25.80;99.90
3246;DHT22;1635;48.000;10.582;2022-08-05T08:15:06;25.90;99.90
3246;DHT22;1635;48.000;10.582;2022-08-05T08:17:43;25.70;99.90
3246;DHT22;1635;48.000;10.582;2022-08-05T08:20:21;25.90;99.90
3246;DHT22;1635;48.000;10.582;2022-08-05T08:23:09;26.30;99.90
3246;DHT22;1635;48.000;10.582;2022-08-05T08:25:57;26.50;99.90
3246;DHT22;1635;48.000;10.582;2022-08-05T08:28:31;26.30;99.90
3246;DHT22;1635;48.000;10.582;2022-08-05T08:31:09;26.70;99.90
3246;DHT22;1635;48.000;10.582;2022-08-05T08:33:44;26.70;99.90
3246;DHT22;1635;48.000;10.582;2022-08-05T08:36:18;26.80;99.90
3246;DHT22;1635;48.000;10.582;2022-08-05T08:39:06;27.00;99.90
3246;DHT22;1635;48.000;10.582;2022-08-05T08:41:46;27.30;99.90
3246;DHT22;1635;48.000;10.582;2022-08-05T08:44:28;27.30;99.90
3246;DHT22;1635;48.000;10.582;2022-08-05T08:47:18;27.40;99.90
3246;DHT22;1635;48.000;10.582;2022-08-05T08:50:10;27.90;99.90
3246;DHT22;1635;48.000;10.582;2022-08-05T08:53:07;28.10;99.90
3246;DHT22;1635;48.000;10.582;2022-08-05T08:55:39;27.90;99.90
3246;DHT22;1635;48.000;10.582;2022-08-05T08:58:27;27.70;99.90
3246;DHT22;1635;48.000;10.582;2022-08-05T09:01:11;27.90;99.90
3246;DHT22;1635;48.000;10.582;2022-08-05T09:03:49;28.00;99.90
3246;DHT22;1635;48.000;10.582;2022-08-05T09:06:25;28.10;99.90
3246;DHT22;1635;48.000;10.582;2022-08-05T09:09:00;27.90;99.90
3246;DHT22;1635;48.000;10.582;2022-08-05T09:11:31;27.80;99.90
3246;DHT22;1635;48.000;10.582;2022-08-05T09:14:19;27.90;99.90
3246;DHT22;1635;48.000;10.582;2022-08-05T09:17:09;28.30;99.90
3246;DHT22;1635;48.000;10.582;2022-08-05T09:19:59;28.30;99.90
3246;DHT22;1635;48.000;10.582;2022-08-05T09:25:48;28.20;99.90
3246;DHT22;1635;48.000;10.582;2022-08-05T09:28:32;28.60;99.90
3246;DHT22;1635;48.000;10.582;2022-08-05T09:31:12;29.10;99.90
3246;DHT22;1635;48.000;10.582;2022-08-05T09:34:05;29.50;99.90
3246;DHT22;1635;48.000;10.582;2022-08-05T09:36:51;29.90;99.90
3246;DHT22;1635;48.000;10.582;2022-08-05T09:42:14;30.80;99.90
3246;DHT22;1635;48.000;10.582;2022-08-05T09:44:55;30.70;99.90
3246;DHT22;1635;48.000;10.582;2022-08-05T09:47:44;30.80;99.90
3246;DHT22;1635;48.000;10.582;2022-08-05T09:50:36;30.80;99.90
3246;DHT22;1635;48.000;10.582;2022-08-05T09:53:11;31.20;99.90
3246;DHT22;1635;48.000;10.582;2022-08-05T09:55:55;32.00;99.90
3246;DHT22;1635;48.000;10.582;2022-08-05T09:58:31;32.00;99.90
3246;DHT22;1635;48.000;10.582;2022-08-05T10:01:04;32.10;99.90
3246;DHT22;1635;48.000;10.582;2022-08-05T10:03:55;32.40;99.90
3246;DHT22;1635;48.000;10.582;2022-08-05T10:06:28;33.00;99.90
3246;DHT22;1635;48.000;10.582;2022-08-05T10:09:17;33.40;99.90
3246;DHT22;1635;48.000;10.582;2022-08-05T10:12:07;33.50;99.90
3246;DHT22;1635;48.000;10.582;2022-08-05T10:15:22;34.60;99.90
3246;DHT22;1635;48.000;10.582;2022-08-05T10:18:13;35.30;99.90
3246;DHT22;1635;48.000;10.582;2022-08-05T10:20:51;35.10;99.90
3246;DHT22;1635;48.000;10.582;2022-08-05T10:23:26;34.70;99.90
3246;DHT22;1635;48.000;10.582;2022-08-05T10:26:13;34.40;99.90
3246;DHT22;1635;48.000;10.582;2022-08-05T10:28:43;34.10;99.90
3246;DHT22;1635;48.000;10.582;2022-08-05T10:31:14;33.40;99.90
3246;DHT22;1635;48.000;10.582;2022-08-05T10:34:04;33.40;99.90
3246;DHT22;1635;48.000;10.582;2022-08-05T10:36:36;33.90;99.90
3246;DHT22;1635;48.000;10.582;2022-08-05T10:39:26;34.50;99.90
3246;DHT22;1635;48.000;10.582;2022-08-05T10:42:21;34.90;99.90
3246;DHT22;1635;48.000;10.582;2022-08-05T10:45:03;35.50;99.90
3246;DHT22;1635;48.000;10.582;2022-08-05T10:47:51;36.10;99.50
3246;DHT22;1635;48.000;10.582;2022-08-05T10:51:06;36.70;99.30
3246;DHT22;1635;48.000;10.582;2022-08-05T10:53:53;35.70;98.80
3246;DHT22;1635;48.000;10.582;2022-08-05T10:56:28;35.00;99.40
3246;DHT22;1635;48.000;10.582;2022-08-05T10:59:02;34.40;99.20
3246;DHT22;1635;48.000;10.582;2022-08-05T11:02:09;33.80;99.90
3246;DHT22;1635;48.000;10.582;2022-08-05T11:04:57;33.30;99.90
3246;DHT22;1635;48.000;10.582;2022-08-05T11:07:27;33.60;99.90
3246;DHT22;1635;48.000;10.582;2022-08-05T11:10:22;34.20;99.90
3246;DHT22;1635;48.000;10.582;2022-08-05T11:12:58;35.10;98.80
3246;DHT22;1635;48.000;10.582;2022-08-05T11:15:29;35.90;97.90
3246;DHT22;1635;48.000;10.582;2022-08-05T11:18:31;36.60;97.90
3246;DHT22;1635;48.000;10.582;2022-08-05T11:21:02;37.00;97.10
3246;DHT22;1635;48.000;10.582;2022-08-05T11:23:53;36.80;97.10
3246;DHT22;1635;48.000;10.582;2022-08-05T11:26:40;36.80;96.70
3246;DHT22;1635;48.000;10.582;2022-08-05T11:29:36;36.00;96.10
3246;DHT22;1635;48.000;10.582;2022-08-05T11:32:26;35.00;96.50
3246;DHT22;1635;48.000;10.582;2022-08-05T11:34:56;34.70;97.70
3246;DHT22;1635;48.000;10.582;2022-08-05T11:44:03;33.90;98.00
3246;DHT22;1635;48.000;10.582;2022-08-05T11:47:06;33.60;99.30
3246;DHT22;1635;48.000;10.582;2022-08-05T11:49:40;34.40;97.30
3246;DHT22;1635;48.000;10.582;2022-08-05T11:52:08;35.30;97.70
3246;DHT22;1635;48.000;10.582;2022-08-05T11:54:39;36.30;97.50
3246;DHT22;1635;48.000;10.582;2022-08-05T11:57:07;36.70;95.90
3246;DHT22;1635;48.000;10.582;2022-08-05T11:59:53;36.30;96.60
3246;DHT22;1635;48.000;10.582;2022-08-05T12:02:27;36.30;96.00
3246;DHT22;1635;48.000;10.582;2022-08-05T12:05:01;37.00;95.90
3246;DHT22;1635;48.000;10.582;2022-08-05T12:07:44;37.70;94.70
3246;DHT22;1635;48.000;10.582;2022-08-05T12:10:35;39.00;95.20
3246;DHT22;1635;48.000;10.582;2022-08-05T12:13:16;39.30;92.60
3246;DHT22;1635;48.000;10.582;2022-08-05T12:16:07;39.90;92.70
3246;DHT22;1635;48.000;10.582;2022-08-05T12:18:43;39.80;93.20
3246;DHT22;1635;48.000;10.582;2022-08-05T12:21:22;39.00;91.70
3246;DHT22;1635;48.000;10.582;2022-08-05T12:24:13;38.70;91.50
3246;DHT22;1635;48.000;10.582;2022-08-05T12:26:52;38.70;92.10
3246;DHT22;1635;48.000;10.582;2022-08-05T12:29:23;38.70;91.80
3246;DHT22;1635;48.000;10.582;2022-08-05T12:31:58;38.90;93.20
3246;DHT22;1635;48.000;10.582;2022-08-05T12:34:36;38.70;92.70
3246;DHT22;1635;48.000;10.582;2022-08-05T12:37:08;38.30;92.90
3246;DHT22;1635;48.000;10.582;2022-08-05T12:39:50;38.60;94.20
3246;DHT22;1635;48.000;10.582;2022-08-05T12:42:20;38.30;92.40
3246;DHT22;1635;48.000;10.582;2022-08-05T12:45:09;37.80;92.60
3246;DHT22;1635;48.000;10.582;2022-08-05T12:47:37;37.80;93.80
3246;DHT22;1635;48.000;10.582;2022-08-05T12:50:26;37.80;93.90
3246;DHT22;1635;48.000;10.582;2022-08-05T12:52:57;37.90;93.60
3246;DHT22;1635;48.000;10.582;2022-08-05T12:55:28;37.10;93.50
3246;DHT22;1635;48.000;10.582;2022-08-05T12:57:59;36.90;93.80
3246;DHT22;1635;48.000;10.582;2022-08-05T13:00:48;37.20;94.40
3246;DHT22;1635;48.000;10.582;2022-08-05T13:03:38;36.20;93.30
3246;DHT22;1635;48.000;10.582;2022-08-05T13:06:15;36.40;94.00
3246;DHT22;1635;48.000;10.582;2022-08-05T13:08:48;36.70;93.20
3246;DHT22;1635;48.000;10.582;2022-08-05T13:11:26;37.90;92.30
3246;DHT22;1635;48.000;10.582;2022-08-05T13:14:23;38.50;92.10
3246;DHT22;1635;48.000;10.582;2022-08-05T13:19:55;38.70;91.60
3246;DHT22;1635;48.000;10.582;2022-08-05T13:22:24;38.30;92.50
3246;DHT22;1635;48.000;10.582;2022-08-05T13:24:58;38.00;92.20
3246;DHT22;1635;48.000;10.582;2022-08-05T13:27:51;38.00;92.10
3246;DHT22;1635;48.000;10.582;2022-08-05T13:30:20;37.60;91.90
3246;DHT22;1635;48.000;10.582;2022-08-05T13:33:02;37.10;92.40
3246;DHT22;1635;48.000;10.582;2022-08-05T13:35:30;36.80;92.30
3246;DHT22;1635;48.000;10.582;2022-08-05T13:38:19;36.70;92.60
3246;DHT22;1635;48.000;10.582;2022-08-05T13:40:58;37.70;92.00
3246;DHT22;1635;48.000;10.582;2022-08-05T13:43:27;36.60;92.80
3246;DHT22;1635;48.000;10.582;2022-08-05T13:46:15;35.70;93.30
3246;DHT22;1635;48.000;10.582;2022-08-05T13:49:04;35.70;93.80
3246;DHT22;1635;48.000;10.582;2022-08-05T13:51:39;35.40;94.30
3246;DHT22;1635;48.000;10.582;2022-08-05T13:54:15;34.80;94.90
3246;DHT22;1635;48.000;10.582;2022-08-05T13:56:51;34.00;94.60
3246;DHT22;1635;48.000;10.582;2022-08-05T13:59:21;33.70;94.80
3246;DHT22;1635;48.000;10.582;2022-08-05T14:01:53;34.10;94.90
3246;DHT22;1635;48.000;10.582;2022-08-05T14:04:32;34.90;94.20
3246;DHT22;1635;48.000;10.582;2022-08-05T14:07:35;35.70;93.80
3246;DHT22;1635;48.000;10.582;2022-08-05T14:10:25;35.90;93.40
3246;DHT22;1635;48.000;10.582;2022-08-05T14:12:55;36.00;93.00
3246;DHT22;1635;48.000;10.582;2022-08-05T14:15:25;36.90;92.60
3246;DHT22;1635;48.000;10.582;2022-08-05T14:18:17;37.00;92.80
3246;DHT22;1635;48.000;10.582;2022-08-05T14:20:51;36.90;93.50
3246;DHT22;1635;48.000;10.582;2022-08-05T14:23:22;37.30;92.00
3246;DHT22;1635;48.000;10.582;2022-08-05T14:25:54;37.90;91.30
3246;DHT22;1635;48.000;10.582;2022-08-05T14:28:29;37.80;91.10
3246;DHT22;1635;48.000;10.582;2022-08-05T14:30:58;37.60;91.30
3246;DHT22;1635;48.000;10.582;2022-08-05T14:33:28;36.80;91.60
3246;DHT22;1635;48.000;10.582;2022-08-05T14:36:16;37.00;92.40
3246;DHT22;1635;48.000;10.582;2022-08-05T14:38:49;36.50;91.70
3246;DHT22;1635;48.000;10.582;2022-08-05T14:41:17;36.50;91.70
3246;DHT22;1635;48.000;10.582;2022-08-05T14:43:46;35.80;92.20
3246;DHT22;1635;48.000;10.582;2022-08-05T14:46:33;35.90;92.40
3246;DHT22;1635;48.000;10.582;2022-08-05T14:49:04;36.00;92.20
3246;DHT22;1635;48.000;10.582;2022-08-05T14:51:37;35.50;93.00
3246;DHT22;1635;48.000;10.582;2022-08-05T14:54:10;35.10;93.50
3246;DHT22;1635;48.000;10.582;2022-08-05T14:56:57;34.90;92.60
3246;DHT22;1635;48.000;10.582;2022-08-05T14:59:27;35.30;92.40
3246;DHT22;1635;48.000;10.582;2022-08-05T15:02:03;35.40;92.40
3246;DHT22;1635;48.000;10.582;2022-08-05T15:04:52;35.20;92.40
3246;DHT22;1635;48.000;10.582;2022-08-05T15:07:19;34.70;93.40
3246;DHT22;1635;48.000;10.582;2022-08-05T15:10:07;34.30;93.50
3246;DHT22;1635;48.000;10.582;2022-08-05T15:12:35;33.80;94.60
3246;DHT22;1635;48.000;10.582;2022-08-05T15:15:25;33.40;93.40
3246;DHT22;1635;48.000;10.582;2022-08-05T15:18:14;33.10;94.30
3246;DHT22;1635;48.000;10.582;2022-08-05T15:20:44;32.90;94.20
3246;DHT22;1635;48.000;10.582;2022-08-05T15:23:12;32.60;94.60
3246;DHT22;1635;48.000;10.582;2022-08-05T15:25:41;32.10;96.00
3246;DHT22;1635;48.000;10.582;2022-08-05T15:28:22;31.40;96.10
3246;DHT22;1635;48.000;10.582;2022-08-05T15:30:55;30.90;96.80
3246;DHT22;1635;48.000;10.582;2022-08-05T15:33:22;30.90;96.30
3246;DHT22;1635;48.000;10.582;2022-08-05T15:36:11;30.70;96.90
3246;DHT22;1635;48.000;10.582;2022-08-05T15:38:52;30.90;96.90
3246;DHT22;1635;48.000;10.582;2022-08-05T15:41:40;30.90;96.80
3246;DHT22;1635;48.000;10.582;2022-08-05T15:44:22;30.80;96.80
3246;DHT22;1635;48.000;10.582;2022-08-05T15:46:52;30.90;97.00
3246;DHT22;1635;48.000;10.582;2022-08-05T15:49:21;31.00;96.20
3246;DHT22;1635;48.000;10.582;2022-08-05T15:52:09;31.00;97.60
3246;DHT22;1635;48.000;10.582;2022-08-05T15:54:56;31.10;97.20
3246;DHT22;1635;48.000;10.582;2022-08-05T15:57:26;30.90;96.70
3246;DHT22;1635;48.000;10.582;2022-08-05T16:00:03;30.60;96.80
3246;DHT22;1635;48.000;10.582;2022-08-05T16:02:32;30.80;97.50
3246;DHT22;1635;48.000;10.582;2022-08-05T16:05:01;30.90;97.50
3246;DHT22;1635;48.000;10.582;2022-08-05T16:07:32;30.70;98.00
3246;DHT22;1635;48.000;10.582;2022-08-05T16:10:02;30.50;97.80
3246;DHT22;1635;48.000;10.582;2022-08-05T16:12:30;30.50;98.00
3246;DHT22;1635;48.000;10.582;2022-08-05T16:14:57;30.50;97.30
3246;DHT22;1635;48.000;10.582;2022-08-05T16:17:26;30.50;98.00
3246;DHT22;1635;48.000;10.582;2022-08-05T16:19:54;30.50;98.00
3246;DHT22;1635;48.000;10.582;2022-08-05T16:22:34;30.50;98.50
3246;DHT22;1635;48.000;10.582;2022-08-05T16:25:05;30.50;97.90
3246;DHT22;1635;48.000;10.582;2022-08-05T16:27:37;30.50;98.40
3246;DHT22;1635;48.000;10.582;2022-08-05T16:30:24;30.50;99.90
3246;DHT22;1635;48.000;10.582;2022-08-05T16:32:57;30.70;99.90
3246;DHT22;1635;48.000;10.582;2022-08-05T16:35:25;30.80;99.90
3246;DHT22;1635;48.000;10.582;2022-08-05T16:37:59;30.70;99.90
3246;DHT22;1635;48.000;10.582;2022-08-05T16:40:36;30.50;99.40
3246;DHT22;1635;48.000;10.582;2022-08-05T16:43:05;30.60;99.80
3246;DHT22;1635;48.000;10.582;2022-08-05T16:45:34;30.50;99.60
3246;DHT22;1635;48.000;10.582;2022-08-05T16:48:23;30.50;99.60
3246;DHT22;1635;48.000;10.582;2022-08-05T16:51:00;30.50;99.90
3246;DHT22;1635;48.000;10.582;2022-08-05T16:53:39;30.30;99.90
3246;DHT22;1635;48.000;10.582;2022-08-05T16:56:29;30.10;99.90
3246;DHT22;1635;48.000;10.582;2022-08-05T16:59:03;29.80;99.90
3246;DHT22;1635;48.000;10.582;2022-08-05T17:01:36;29.50;99.90
3246;DHT22;1635;48.000;10.582;2022-08-05T17:04:26;29.30;99.90
3246;DHT22;1635;48.000;10.582;2022-08-05T17:06:56;29.00;99.90
3246;DHT22;1635;48.000;10.582;2022-08-05T17:09:29;29.00;99.90
3246;DHT22;1635;48.000;10.582;2022-08-05T17:12:04;28.90;99.90
3246;DHT22;1635;48.000;10.582;2022-08-05T17:14:33;28.90;99.90
3246;DHT22;1635;48.000;10.582;2022-08-05T17:17:06;28.80;99.90
3246;DHT22;1635;48.000;10.582;2022-08-05T17:19:42;28.60;99.90
3246;DHT22;1635;48.000;10.582;2022-08-05T17:22:14;28.50;99.90